sensor_id;sensor_type;location;lat;lon;timestamp;temperature;humidity
52669;DHT22;59898;52.786;6.892;2023-04-25T00:02:35;7.20;99.90
52669;DHT22;59898;52.786;6.892;2023-04-25T00:05:56;7.20;99.90
52669;DHT22;59898;52.786;6.892;2023-04-25T00:09:17;7.20;99.90
52669;DHT22;59898;52.786;6.892;2023-04-25T00:12:37;7.10;99.90
52669;DHT22;59898;52.786;6.892;2023-04-25T00:15:59;7.10;99.90
52669;DHT22;59898;52.786;6.892;2023-04-25T00:19:20;7.10;99.90
52669;DHT22;59898;52.786;6.892;2023-04-25T00:22:41;7.10;99.90
52669;DHT22;59898;52.786;6.892;2023-04-25T00:26:01;7.10;99.90
52669;DHT22;59898;52.786;6.892;2023-04-25T00:29:22;7.10;99.90
52669;DHT22;59898;52.786;6.892;2023-04-25T00:32:43;7.10;99.90
52669;DHT22;59898;52.786;6.892;2023-04-25T00:36:04;7.10;99.90
52669;DHT22;59898;52.786;6.892;2023-04-25T00:39:24;7.10;99.90
52669;DHT22;59898;52.786;6.892;2023-04-25T00:42:46;7.10;99.90
52669;DHT22;59898;52.786;6.892;2023-04-25T00:46:07;7.00;99.90
52669;DHT22;59898;52.786;6.892;2023-04-25T00:49:27;7.00;99.90
52669;DHT22;59898;52.786;6.892;2023-04-25T00:52:48;7.00;99.90
52669;DHT22;59898;52.786;6.892;2023-04-25T00:56:09;6.90;99.90
52669;DHT22;59898;52.786;6.892;2023-04-25T00:59:30;6.90;99.90
52669;DHT22;59898;52.786;6.892;2023-04-25T01:02:51;6.80;99.90
52669;DHT22;59898;52.786;6.892;2023-04-25T01:06:12;6.80;99.90
52669;DHT22;59898;52.786;6.892;2023-04-25T01:09:33;6.70;99.90
52669;DHT22;59898;52.786;6.892;2023-04-25T01:12:54;6.70;99.90
52669;DHT22;59898;52.786;6.892;2023-04-25T01:16:15;6.60;99.90
52669;DHT22;59898;52.786;6.892;2023-04-25T01:19:35;6.60;99.90
52669;DHT22;59898;52.786;6.892;2023-04-25T01:22:56;7.60;99.90
52669;DHT22;59898;52.786;6.892;2023-04-25T01:26:17;6.50;99.90
52669;DHT22;59898;52.786;6.892;2023-04-25T01:29:38;6.50;99.90
52669;DHT22;59898;52.786;6.892;2023-04-25T01:32:59;6.50;99.90
52669;DHT22;59898;52.786;6.892;2023-04-25T01:36:21;6.50;99.90
52669;DHT22;59898;52.786;6.892;2023-04-25T01:39:42;6.50;99.90
52669;DHT22;59898;52.786;6.892;2023-04-25T01:43:03;6.40;99.90
52669;DHT22;59898;52.786;6.892;2023-04-25T01:46:24;6.40;99.90
52669;DHT22;59898;52.786;6.892;2023-04-25T01:49:45;6.40;99.90
52669;DHT22;59898;52.786;6.892;2023-04-25T01:53:06;6.40;99.90
52669;DHT22;59898;52.786;6.892;2023-04-25T01:56:30;6.30;99.90
52669;DHT22;59898;52.786;6.892;2023-04-25T01:59:51;6.30;99.90
52669;DHT22;59898;52.786;6.892;2023-04-25T02:03:12;6.30;99.90
52669;DHT22;59898;52.786;6.892;2023-04-25T02:06:32;6.30;99.90
52669;DHT22;59898;52.786;6.892;2023-04-25T02:09:53;6.20;99.90
52669;DHT22;59898;52.786;6.892;2023-04-25T02:13:13;6.30;99.90
52669;DHT22;59898;52.786;6.892;2023-04-25T02:16:34;6.20;99.90
52669;DHT22;59898;52.786;6.892;2023-04-25T02:19:55;6.20;99.90
52669;DHT22;59898;52.786;6.892;2023-04-25T02:23:16;6.20;99.90
52669;DHT22;59898;52.786;6.892;2023-04-25T02:26:39;6.20;99.90
52669;DHT22;59898;52.786;6.892;2023-04-25T02:30:00;6.20;99.90
52669;DHT22;59898;52.786;6.892;2023-04-25T02:33:20;6.20;99.90
52669;DHT22;59898;52.786;6.892;2023-04-25T02:36:41;6.20;99.90
52669;DHT22;59898;52.786;6.892;2023-04-25T02:40:02;6.10;99.90
52669;DHT22;59898;52.786;6.892;2023-04-25T02:43:26;6.20;99.90
52669;DHT22;59898;52.786;6.892;2023-04-25T02:46:46;6.20;99.90
52669;DHT22;59898;52.786;6.892;2023-04-25T02:50:07;6.20;99.90
52669;DHT22;59898;52.786;6.892;2023-04-25T02:53:28;6.10;99.90
52669;DHT22;59898;52.786;6.892;2023-04-25T02:56:48;6.10;99.90
52669;DHT22;59898;52.786;6.892;2023-04-25T03:00:09;6.10;99.90
52669;DHT22;59898;52.786;6.892;2023-04-25T03:03:32;6.10;99.90
52669;DHT22;59898;52.786;6.892;2023-04-25T03:06:53;6.10;99.90
52669;DHT22;59898;52.786;6.892;2023-04-25T03:10:13;6.10;99.90
52669;DHT22;59898;52.786;6.892;2023-04-25T03:13:34;6.20;99.90
52669;DHT22;59898;52.786;6.892;2023-04-25T03:16:54;6.20;99.90
52669;DHT22;59898;52.786;6.892;2023-04-25T03:20:15;6.20;99.90
52669;DHT22;59898;52.786;6.892;2023-04-25T03:23:36;6.10;99.90
52669;DHT22;59898;52.786;6.892;2023-04-25T03:26:56;6.10;99.90
52669;DHT22;59898;52.786;6.892;2023-04-25T03:30:17;6.10;99.90
52669;DHT22;59898;52.786;6.892;2023-04-25T03:33:37;6.10;99.90
52669;DHT22;59898;52.786;6.892;2023-04-25T03:36:58;6.10;99.90
52669;DHT22;59898;52.786;6.892;2023-04-25T03:40:19;6.10;99.90
52669;DHT22;59898;52.786;6.892;2023-04-25T03:43:39;6.10;99.90
52669;DHT22;59898;52.786;6.892;2023-04-25T03:47:00;6.10;99.90
52669;DHT22;59898;52.786;6.892;2023-04-25T03:50:21;6.10;99.90
52669;DHT22;59898;52.786;6.892;2023-04-25T03:53:41;6.10;99.90
52669;DHT22;59898;52.786;6.892;2023-04-25T03:57:02;6.10;99.90
52669;DHT22;59898;52.786;6.892;2023-04-25T04:00:22;6.10;99.90
52669;DHT22;59898;52.786;6.892;2023-04-25T04:03:43;6.10;99.90
52669;DHT22;59898;52.786;6.892;2023-04-25T04:07:03;6.10;99.90
52669;DHT22;59898;52.786;6.892;2023-04-25T04:10:24;6.10;99.90
52669;DHT22;59898;52.786;6.892;2023-04-25T04:13:46;6.10;99.90
52669;DHT22;59898;52.786;6.892;2023-04-25T04:17:06;6.00;99.90
52669;DHT22;59898;52.786;6.892;2023-04-25T04:20:27;6.00;99.90
52669;DHT22;59898;52.786;6.892;2023-04-25T04:23:48;6.00;99.90
52669;DHT22;59898;52.786;6.892;2023-04-25T04:27:09;6.00;99.90
52669;DHT22;59898;52.786;6.892;2023-04-25T04:30:29;5.90;99.90
52669;DHT22;59898;52.786;6.892;2023-04-25T04:33:51;5.90;99.90
52669;DHT22;59898;52.786;6.892;2023-04-25T04:37:12;5.90;99.90
52669;DHT22;59898;52.786;6.892;2023-04-25T04:40:33;5.90;99.90
52669;DHT22;59898;52.786;6.892;2023-04-25T04:43:53;5.90;99.90
52669;DHT22;59898;52.786;6.892;2023-04-25T04:47:16;5.90;99.90
52669;DHT22;59898;52.786;6.892;2023-04-25T04:50:36;5.90;99.90
52669;DHT22;59898;52.786;6.892;2023-04-25T04:53:58;5.90;99.90
52669;DHT22;59898;52.786;6.892;2023-04-25T04:57:22;5.90;99.90
52669;DHT22;59898;52.786;6.892;2023-04-25T05:00:42;5.80;99.90
52669;DHT22;59898;52.786;6.892;2023-04-25T05:04:03;5.80;99.90
52669;DHT22;59898;52.786;6.892;2023-04-25T05:07:24;5.80;99.90
52669;DHT22;59898;52.786;6.892;2023-04-25T05:10:45;5.90;99.90
52669;DHT22;59898;52.786;6.892;2023-04-25T05:14:05;5.90;99.90
52669;DHT22;59898;52.786;6.892;2023-04-25T05:17:26;5.90;99.90
52669;DHT22;59898;52.786;6.892;2023-04-25T05:20:46;6.00;99.90
52669;DHT22;59898;52.786;6.892;2023-04-25T05:24:07;6.00;99.90
52669;DHT22;59898;52.786;6.892;2023-04-25T05:27:28;6.00;99.90
52669;DHT22;59898;52.786;6.892;2023-04-25T05:30:48;6.00;99.90
52669;DHT22;59898;52.786;6.892;2023-04-25T05:34:09;6.00;99.90
52669;DHT22;59898;52.786;6.892;2023-04-25T05:37:30;6.00;99.90
52669;DHT22;59898;52.786;6.892;2023-04-25T05:40:51;6.10;99.90
52669;DHT22;59898;52.786;6.892;2023-04-25T05:44:12;6.10;99.90
52669;DHT22;59898;52.786;6.892;2023-04-25T05:47:32;6.10;99.90
52669;DHT22;59898;52.786;6.892;2023-04-25T05:50:53;6.20;99.90
52669;DHT22;59898;52.786;6.892;2023-04-25T05:54:13;6.20;99.90
52669;DHT22;59898;52.786;6.892;2023-04-25T05:57:34;6.30;99.90
52669;DHT22;59898;52.786;6.892;2023-04-25T06:00:55;6.30;99.90
52669;DHT22;59898;52.786;6.892;2023-04-25T06:04:15;6.40;99.90
52669;DHT22;59898;52.786;6.892;2023-04-25T06:07:36;6.50;99.90
52669;DHT22;59898;52.786;6.892;2023-04-25T06:10:57;6.50;99.90
52669;DHT22;59898;52.786;6.892;2023-04-25T06:14:17;6.50;99.90
52669;DHT22;59898;52.786;6.892;2023-04-25T06:17:38;6.60;99.90
52669;DHT22;59898;52.786;6.892;2023-04-25T06:20:59;6.70;99.90
52669;DHT22;59898;52.786;6.892;2023-04-25T06:24:19;7.30;99.90
52669;DHT22;59898;52.786;6.892;2023-04-25T06:27:40;6.90;99.90
52669;DHT22;59898;52.786;6.892;2023-04-25T06:31:00;7.00;99.90
52669;DHT22;59898;52.786;6.892;2023-04-25T06:34:21;7.00;99.90
52669;DHT22;59898;52.786;6.892;2023-04-25T06:37:41;7.10;99.90
52669;DHT22;59898;52.786;6.892;2023-04-25T06:41:02;7.20;99.90
52669;DHT22;59898;52.786;6.892;2023-04-25T06:44:23;7.40;99.90
52669;DHT22;59898;52.786;6.892;2023-04-25T06:47:44;7.50;99.90
52669;DHT22;59898;52.786;6.892;2023-04-25T06:51:04;7.70;99.90
52669;DHT22;59898;52.786;6.892;2023-04-25T06:54:25;7.90;99.90
52669;DHT22;59898;52.786;6.892;2023-04-25T06:57:47;8.10;99.90
52669;DHT22;59898;52.786;6.892;2023-04-25T07:01:08;8.10;99.90
52669;DHT22;59898;52.786;6.892;2023-04-25T07:04:28;8.20;99.90
52669;DHT22;59898;52.786;6.892;2023-04-25T07:07:49;8.60;99.90
52669;DHT22;59898;52.786;6.892;2023-04-25T07:11:09;8.30;99.90
52669;DHT22;59898;52.786;6.892;2023-04-25T07:14:30;8.40;99.90
52669;DHT22;59898;52.786;6.892;2023-04-25T07:17:51;8.30;99.90
52669;DHT22;59898;52.786;6.892;2023-04-25T07:21:12;8.20;99.90
52669;DHT22;59898;52.786;6.892;2023-04-25T07:24:33;8.10;99.90
52669;DHT22;59898;52.786;6.892;2023-04-25T07:27:53;8.20;99.90
52669;DHT22;59898;52.786;6.892;2023-04-25T07:31:14;8.30;99.90
52669;DHT22;59898;52.786;6.892;2023-04-25T07:34:36;8.30;99.90
52669;DHT22;59898;52.786;6.892;2023-04-25T07:37:57;8.30;99.90
52669;DHT22;59898;52.786;6.892;2023-04-25T07:41:19;8.30;99.90
52669;DHT22;59898;52.786;6.892;2023-04-25T07:44:39;8.30;99.90
52669;DHT22;59898;52.786;6.892;2023-04-25T07:48:00;8.30;99.90
52669;DHT22;59898;52.786;6.892;2023-04-25T07:51:21;8.60;99.90
52669;DHT22;59898;52.786;6.892;2023-04-25T07:54:42;8.60;99.90
52669;DHT22;59898;52.786;6.892;2023-04-25T07:58:03;8.70;99.90
52669;DHT22;59898;52.786;6.892;2023-04-25T08:01:23;8.80;99.90
52669;DHT22;59898;52.786;6.892;2023-04-25T08:04:44;8.90;99.90
52669;DHT22;59898;52.786;6.892;2023-04-25T08:08:04;9.20;99.90
52669;DHT22;59898;52.786;6.892;2023-04-25T08:11:26;9.30;99.90
52669;DHT22;59898;52.786;6.892;2023-04-25T08:14:47;9.40;99.90
52669;DHT22;59898;52.786;6.892;2023-04-25T08:18:08;9.50;99.90
52669;DHT22;59898;52.786;6.892;2023-04-25T08:21:28;9.40;99.90
52669;DHT22;59898;52.786;6.892;2023-04-25T08:24:49;9.40;99.90
52669;DHT22;59898;52.786;6.892;2023-04-25T08:28:09;9.40;99.90
52669;DHT22;59898;52.786;6.892;2023-04-25T08:31:30;9.50;99.90
52669;DHT22;59898;52.786;6.892;2023-04-25T08:34:50;9.60;99.90
52669;DHT22;59898;52.786;6.892;2023-04-25T08:38:14;9.80;99.90
52669;DHT22;59898;52.786;6.892;2023-04-25T08:41:37;9.90;99.90
52669;DHT22;59898;52.786;6.892;2023-04-25T08:44:58;9.90;99.90
52669;DHT22;59898;52.786;6.892;2023-04-25T08:48:19;9.80;99.90
52669;DHT22;59898;52.786;6.892;2023-04-25T08:51:45;9.50;99.90
52669;DHT22;59898;52.786;6.892;2023-04-25T08:55:08;9.20;99.90
52669;DHT22;59898;52.786;6.892;2023-04-25T08:58:30;8.80;99.90
52669;DHT22;59898;52.786;6.892;2023-04-25T09:01:51;8.50;99.90
52669;DHT22;59898;52.786;6.892;2023-04-25T09:05:13;8.40;99.90
52669;DHT22;59898;52.786;6.892;2023-04-25T09:08:33;8.50;99.90
52669;DHT22;59898;52.786;6.892;2023-04-25T09:11:56;8.90;99.90
52669;DHT22;59898;52.786;6.892;2023-04-25T09:15:17;9.20;99.90
52669;DHT22;59898;52.786;6.892;2023-04-25T09:18:37;9.50;99.90
52669;DHT22;59898;52.786;6.892;2023-04-25T09:22:00;9.70;99.90
52669;DHT22;59898;52.786;6.892;2023-04-25T09:25:21;10.00;99.90
52669;DHT22;59898;52.786;6.892;2023-04-25T09:28:42;10.40;99.90
52669;DHT22;59898;52.786;6.892;2023-04-25T09:32:20;10.60;99.90
52669;DHT22;59898;52.786;6.892;2023-04-25T09:35:43;10.60;99.90
52669;DHT22;59898;52.786;6.892;2023-04-25T09:39:12;10.60;99.90
52669;DHT22;59898;52.786;6.892;2023-04-25T09:42:35;10.50;99.90
52669;DHT22;59898;52.786;6.892;2023-04-25T09:45:56;10.50;99.90
52669;DHT22;59898;52.786;6.892;2023-04-25T09:49:20;10.70;99.90
52669;DHT22;59898;52.786;6.892;2023-04-25T09:52:41;10.60;99.90
52669;DHT22;59898;52.786;6.892;2023-04-25T09:56:04;10.40;99.90
52669;DHT22;59898;52.786;6.892;2023-04-25T09:59:25;10.20;99.90
52669;DHT22;59898;52.786;6.892;2023-04-25T10:02:47;9.90;99.90
52669;DHT22;59898;52.786;6.892;2023-04-25T10:06:12;9.60;99.90
52669;DHT22;59898;52.786;6.892;2023-04-25T10:09:37;9.40;99.90
52669;DHT22;59898;52.786;6.892;2023-04-25T10:12:58;9.40;99.90
52669;DHT22;59898;52.786;6.892;2023-04-25T10:16:19;9.50;99.90
52669;DHT22;59898;52.786;6.892;2023-04-25T10:19:40;9.70;99.90
52669;DHT22;59898;52.786;6.892;2023-04-25T10:23:12;9.90;99.90
52669;DHT22;59898;52.786;6.892;2023-04-25T10:26:33;10.20;99.90
52669;DHT22;59898;52.786;6.892;2023-04-25T10:30:05;10.60;99.90
52669;DHT22;59898;52.786;6.892;2023-04-25T10:33:39;11.00;99.90
52669;DHT22;59898;52.786;6.892;2023-04-25T10:37:01;11.30;99.90
52669;DHT22;59898;52.786;6.892;2023-04-25T10:40:24;11.50;99.90
52669;DHT22;59898;52.786;6.892;2023-04-25T10:43:48;11.30;99.90
52669;DHT22;59898;52.786;6.892;2023-04-25T10:47:09;10.50;99.90
52669;DHT22;59898;52.786;6.892;2023-04-25T10:50:38;9.90;99.90
52669;DHT22;59898;52.786;6.892;2023-04-25T11:00:57;9.80;99.90
52669;DHT22;59898;52.786;6.892;2023-04-25T11:04:24;10.20;99.90
52669;DHT22;59898;52.786;6.892;2023-04-25T11:07:49;10.70;99.90
52669;DHT22;59898;52.786;6.892;2023-04-25T11:11:11;11.10;99.90
52669;DHT22;59898;52.786;6.892;2023-04-25T11:14:31;11.40;99.90
52669;DHT22;59898;52.786;6.892;2023-04-25T11:17:52;11.80;99.90
52669;DHT22;59898;52.786;6.892;2023-04-25T11:21:13;12.20;99.90
52669;DHT22;59898;52.786;6.892;2023-04-25T11:24:35;12.50;99.90
52669;DHT22;59898;52.786;6.892;2023-04-25T11:27:58;13.10;99.90
52669;DHT22;59898;52.786;6.892;2023-04-25T11:31:21;12.60;99.90
52669;DHT22;59898;52.786;6.892;2023-04-25T11:34:43;12.30;99.90
52669;DHT22;59898;52.786;6.892;2023-04-25T11:38:04;12.00;99.90
52669;DHT22;59898;52.786;6.892;2023-04-25T11:41:25;11.70;99.90
52669;DHT22;59898;52.786;6.892;2023-04-25T11:44:46;11.50;99.90
52669;DHT22;59898;52.786;6.892;2023-04-25T11:48:07;11.00;99.90
52669;DHT22;59898;52.786;6.892;2023-04-25T11:51:27;10.40;99.90
52669;DHT22;59898;52.786;6.892;2023-04-25T11:54:48;9.80;99.90
52669;DHT22;59898;52.786;6.892;2023-04-25T11:58:08;9.60;99.90
52669;DHT22;59898;52.786;6.892;2023-04-25T12:01:29;9.50;99.90
52669;DHT22;59898;52.786;6.892;2023-04-25T12:04:50;9.70;99.90
52669;DHT22;59898;52.786;6.892;2023-04-25T12:08:15;10.00;99.90
52669;DHT22;59898;52.786;6.892;2023-04-25T12:11:43;10.30;99.90
52669;DHT22;59898;52.786;6.892;2023-04-25T12:15:30;10.70;99.90
52669;DHT22;59898;52.786;6.892;2023-04-25T12:18:53;10.90;99.90
52669;DHT22;59898;52.786;6.892;2023-04-25T12:22:22;11.00;99.90
52669;DHT22;59898;52.786;6.892;2023-04-25T12:25:44;11.10;99.90
52669;DHT22;59898;52.786;6.892;2023-04-25T12:29:18;11.30;99.90
52669;DHT22;59898;52.786;6.892;2023-04-25T12:32:39;11.50;99.90
52669;DHT22;59898;52.786;6.892;2023-04-25T12:36:01;11.70;99.90
52669;DHT22;59898;52.786;6.892;2023-04-25T12:39:27;12.00;99.90
52669;DHT22;59898;52.786;6.892;2023-04-25T12:42:48;11.90;99.90
52669;DHT22;59898;52.786;6.892;2023-04-25T12:46:09;12.50;99.90
52669;DHT22;59898;52.786;6.892;2023-04-25T12:49:30;12.10;99.90
52669;DHT22;59898;52.786;6.892;2023-04-25T12:52:50;12.00;99.90
52669;DHT22;59898;52.786;6.892;2023-04-25T12:56:11;11.90;99.90
52669;DHT22;59898;52.786;6.892;2023-04-25T12:59:31;12.00;99.90
52669;DHT22;59898;52.786;6.892;2023-04-25T13:02:52;11.80;99.90
52669;DHT22;59898;52.786;6.892;2023-04-25T13:06:13;11.50;99.90
52669;DHT22;59898;52.786;6.892;2023-04-25T13:09:34;11.50;99.90
52669;DHT22;59898;52.786;6.892;2023-04-25T13:12:54;11.50;99.90
52669;DHT22;59898;52.786;6.892;2023-04-25T13:16:15;11.60;99.90
52669;DHT22;59898;52.786;6.892;2023-04-25T13:19:35;11.40;99.90
52669;DHT22;59898;52.786;6.892;2023-04-25T13:22:56;11.20;99.90
52669;DHT22;59898;52.786;6.892;2023-04-25T13:26:17;10.90;99.90
52669;DHT22;59898;52.786;6.892;2023-04-25T13:29:38;10.80;99.90
52669;DHT22;59898;52.786;6.892;2023-04-25T13:33:00;10.70;99.90
52669;DHT22;59898;52.786;6.892;2023-04-25T13:36:24;10.60;99.90
52669;DHT22;59898;52.786;6.892;2023-04-25T13:39:44;10.80;99.90
52669;DHT22;59898;52.786;6.892;2023-04-25T13:43:05;11.20;99.90
52669;DHT22;59898;52.786;6.892;2023-04-25T13:46:27;11.20;99.90
52669;DHT22;59898;52.786;6.892;2023-04-25T13:49:47;11.20;99.90
52669;DHT22;59898;52.786;6.892;2023-04-25T13:53:08;11.20;99.90
52669;DHT22;59898;52.786;6.892;2023-04-25T13:56:29;11.20;99.90
52669;DHT22;59898;52.786;6.892;2023-04-25T13:59:50;11.20;99.90
52669;DHT22;59898;52.786;6.892;2023-04-25T14:03:10;11.30;99.90
52669;DHT22;59898;52.786;6.892;2023-04-25T14:06:32;11.40;99.90
52669;DHT22;59898;52.786;6.892;2023-04-25T14:09:53;11.50;99.90
52669;DHT22;59898;52.786;6.892;2023-04-25T14:13:13;11.60;99.90
52669;DHT22;59898;52.786;6.892;2023-04-25T14:16:34;11.30;99.90
52669;DHT22;59898;52.786;6.892;2023-04-25T14:19:55;10.90;99.90
52669;DHT22;59898;52.786;6.892;2023-04-25T14:23:15;10.50;99.90
52669;DHT22;59898;52.786;6.892;2023-04-25T14:26:38;10.30;99.90
52669;DHT22;59898;52.786;6.892;2023-04-25T14:29:58;10.20;99.90
52669;DHT22;59898;52.786;6.892;2023-04-25T14:33:19;10.20;99.90
52669;DHT22;59898;52.786;6.892;2023-04-25T14:36:39;10.40;99.90
52669;DHT22;59898;52.786;6.892;2023-04-25T14:40:00;10.70;99.90
52669;DHT22;59898;52.786;6.892;2023-04-25T14:43:20;10.90;99.90
52669;DHT22;59898;52.786;6.892;2023-04-25T14:46:41;10.90;99.90
52669;DHT22;59898;52.786;6.892;2023-04-25T14:50:02;10.80;99.90
52669;DHT22;59898;52.786;6.892;2023-04-25T14:53:23;10.80;99.90
52669;DHT22;59898;52.786;6.892;2023-04-25T14:56:44;10.70;99.90
52669;DHT22;59898;52.786;6.892;2023-04-25T15:00:05;10.70;99.90
52669;DHT22;59898;52.786;6.892;2023-04-25T15:03:29;10.60;99.90
52669;DHT22;59898;52.786;6.892;2023-04-25T15:06:50;10.80;99.90
52669;DHT22;59898;52.786;6.892;2023-04-25T15:10:10;11.00;99.90
52669;DHT22;59898;52.786;6.892;2023-04-25T15:13:34;11.10;99.90
52669;DHT22;59898;52.786;6.892;2023-04-25T15:16:55;11.20;99.90
52669;DHT22;59898;52.786;6.892;2023-04-25T15:20:16;11.30;99.90
52669;DHT22;59898;52.786;6.892;2023-04-25T15:23:36;11.40;99.90
52669;DHT22;59898;52.786;6.892;2023-04-25T15:26:58;11.40;99.90
52669;DHT22;59898;52.786;6.892;2023-04-25T15:30:18;11.20;99.90
52669;DHT22;59898;52.786;6.892;2023-04-25T15:33:39;11.10;99.90
52669;DHT22;59898;52.786;6.892;2023-04-25T15:37:00;11.00;99.90
52669;DHT22;59898;52.786;6.892;2023-04-25T15:40:21;10.90;99.90
52669;DHT22;59898;52.786;6.892;2023-04-25T15:43:41;10.80;99.90
52669;DHT22;59898;52.786;6.892;2023-04-25T15:47:02;10.60;99.90
52669;DHT22;59898;52.786;6.892;2023-04-25T15:50:22;10.50;99.90
52669;DHT22;59898;52.786;6.892;2023-04-25T15:53:43;10.40;99.90
52669;DHT22;59898;52.786;6.892;2023-04-25T15:57:04;10.40;99.90
52669;DHT22;59898;52.786;6.892;2023-04-25T16:00:24;10.50;99.90
52669;DHT22;59898;52.786;6.892;2023-04-25T16:03:45;10.30;99.90
52669;DHT22;59898;52.786;6.892;2023-04-25T16:07:05;10.40;99.90
52669;DHT22;59898;52.786;6.892;2023-04-25T16:10:27;10.40;99.90
52669;DHT22;59898;52.786;6.892;2023-04-25T16:13:48;10.50;99.90
52669;DHT22;59898;52.786;6.892;2023-04-25T16:17:08;10.70;99.90
52669;DHT22;59898;52.786;6.892;2023-04-25T16:20:29;10.70;99.90
52669;DHT22;59898;52.786;6.892;2023-04-25T16:23:50;10.70;99.90
52669;DHT22;59898;52.786;6.892;2023-04-25T16:27:11;10.50;99.90
52669;DHT22;59898;52.786;6.892;2023-04-25T16:30:31;10.30;99.90
52669;DHT22;59898;52.786;6.892;2023-04-25T16:33:52;10.10;99.90
52669;DHT22;59898;52.786;6.892;2023-04-25T16:37:12;10.00;99.90
52669;DHT22;59898;52.786;6.892;2023-04-25T16:40:33;9.80;99.90
52669;DHT22;59898;52.786;6.892;2023-04-25T16:43:54;9.80;99.90
52669;DHT22;59898;52.786;6.892;2023-04-25T16:47:14;9.90;99.90
52669;DHT22;59898;52.786;6.892;2023-04-25T16:50:35;9.90;99.90
52669;DHT22;59898;52.786;6.892;2023-04-25T16:53:56;10.00;99.90
52669;DHT22;59898;52.786;6.892;2023-04-25T16:57:16;9.90;99.90
52669;DHT22;59898;52.786;6.892;2023-04-25T17:00:37;9.80;99.90
52669;DHT22;59898;52.786;6.892;2023-04-25T17:03:58;9.70;99.90
52669;DHT22;59898;52.786;6.892;2023-04-25T17:07:19;9.60;99.90
52669;DHT22;59898;52.786;6.892;2023-04-25T17:10:43;9.50;99.90
52669;DHT22;59898;52.786;6.892;2023-04-25T17:14:04;9.50;99.90
52669;DHT22;59898;52.786;6.892;2023-04-25T17:17:25;9.60;99.90
52669;DHT22;59898;52.786;6.892;2023-04-25T17:20:46;9.60;99.90
52669;DHT22;59898;52.786;6.892;2023-04-25T17:24:07;9.60;99.90
52669;DHT22;59898;52.786;6.892;2023-04-25T17:27:31;9.70;99.90
52669;DHT22;59898;52.786;6.892;2023-04-25T17:30:52;9.60;99.90
52669;DHT22;59898;52.786;6.892;2023-04-25T17:34:12;9.70;99.90
52669;DHT22;59898;52.786;6.892;2023-04-25T17:37:37;9.60;99.90
52669;DHT22;59898;52.786;6.892;2023-04-25T17:40:57;9.60;99.90
52669;DHT22;59898;52.786;6.892;2023-04-25T17:44:18;9.60;99.90
52669;DHT22;59898;52.786;6.892;2023-04-25T17:47:39;9.50;99.90
52669;DHT22;59898;52.786;6.892;2023-04-25T17:51:00;9.50;99.90
52669;DHT22;59898;52.786;6.892;2023-04-25T17:54:21;9.50;99.90
52669;DHT22;59898;52.786;6.892;2023-04-25T17:57:42;10.40;99.90
52669;DHT22;59898;52.786;6.892;2023-04-25T18:01:02;9.10;99.90
52669;DHT22;59898;52.786;6.892;2023-04-25T18:04:24;9.00;99.90
52669;DHT22;59898;52.786;6.892;2023-04-25T18:07:45;9.00;99.90
52669;DHT22;59898;52.786;6.892;2023-04-25T18:11:06;8.90;99.90
52669;DHT22;59898;52.786;6.892;2023-04-25T18:14:26;8.90;99.90
52669;DHT22;59898;52.786;6.892;2023-04-25T18:17:47;8.90;99.90
52669;DHT22;59898;52.786;6.892;2023-04-25T18:21:08;8.80;99.90
52669;DHT22;59898;52.786;6.892;2023-04-25T18:24:29;8.80;99.90
52669;DHT22;59898;52.786;6.892;2023-04-25T18:27:49;8.80;99.90
52669;DHT22;59898;52.786;6.892;2023-04-25T18:31:10;8.70;99.90
52669;DHT22;59898;52.786;6.892;2023-04-25T18:34:31;8.70;99.90
52669;DHT22;59898;52.786;6.892;2023-04-25T18:37:52;8.60;99.90
52669;DHT22;59898;52.786;6.892;2023-04-25T18:41:13;8.50;99.90
52669;DHT22;59898;52.786;6.892;2023-04-25T18:44:35;8.50;99.90
52669;DHT22;59898;52.786;6.892;2023-04-25T18:48:01;8.40;99.90
52669;DHT22;59898;52.786;6.892;2023-04-25T18:51:29;8.40;99.90
52669;DHT22;59898;52.786;6.892;2023-04-25T18:54:50;8.40;99.90
52669;DHT22;59898;52.786;6.892;2023-04-25T18:58:11;8.30;99.90
52669;DHT22;59898;52.786;6.892;2023-04-25T19:01:33;8.30;99.90
52669;DHT22;59898;52.786;6.892;2023-04-25T19:04:53;7.50;99.90
52669;DHT22;59898;52.786;6.892;2023-04-25T19:08:14;8.20;99.90
52669;DHT22;59898;52.786;6.892;2023-04-25T19:11:35;8.20;99.90
52669;DHT22;59898;52.786;6.892;2023-04-25T19:14:55;8.10;99.90
52669;DHT22;59898;52.786;6.892;2023-04-25T19:18:16;8.00;99.90
52669;DHT22;59898;52.786;6.892;2023-04-25T19:21:37;8.00;99.90
52669;DHT22;59898;52.786;6.892;2023-04-25T19:24:58;7.90;99.90
52669;DHT22;59898;52.786;6.892;2023-04-25T19:28:18;7.90;99.90
52669;DHT22;59898;52.786;6.892;2023-04-25T19:31:40;7.90;99.90
52669;DHT22;59898;52.786;6.892;2023-04-25T19:35:02;7.80;99.90
52669;DHT22;59898;52.786;6.892;2023-04-25T19:38:25;7.80;99.90
52669;DHT22;59898;52.786;6.892;2023-04-25T19:41:46;7.70;99.90
52669;DHT22;59898;52.786;6.892;2023-04-25T19:45:07;8.00;99.90
52669;DHT22;59898;52.786;6.892;2023-04-25T19:48:28;7.50;99.90
52669;DHT22;59898;52.786;6.892;2023-04-25T19:51:48;7.60;99.90
52669;DHT22;59898;52.786;6.892;2023-04-25T19:55:09;7.40;99.90
52669;DHT22;59898;52.786;6.892;2023-04-25T19:58:30;7.40;99.90
52669;DHT22;59898;52.786;6.892;2023-04-25T20:01:51;7.40;99.90
52669;DHT22;59898;52.786;6.892;2023-04-25T20:05:15;7.30;99.90
52669;DHT22;59898;52.786;6.892;2023-04-25T20:08:36;7.30;99.90
52669;DHT22;59898;52.786;6.892;2023-04-25T20:11:56;7.30;99.90
52669;DHT22;59898;52.786;6.892;2023-04-25T20:15:17;7.20;99.90
52669;DHT22;59898;52.786;6.892;2023-04-25T20:18:38;7.20;99.90
52669;DHT22;59898;52.786;6.892;2023-04-25T20:21:59;7.20;99.90
52669;DHT22;59898;52.786;6.892;2023-04-25T20:25:20;7.10;99.90
52669;DHT22;59898;52.786;6.892;2023-04-25T20:28:40;7.10;99.90
52669;DHT22;59898;52.786;6.892;2023-04-25T20:32:01;7.10;99.90
52669;DHT22;59898;52.786;6.892;2023-04-25T20:35:21;7.10;99.90
52669;DHT22;59898;52.786;6.892;2023-04-25T20:38:42;7.00;99.90
52669;DHT22;59898;52.786;6.892;2023-04-25T20:42:03;7.00;99.90
52669;DHT22;59898;52.786;6.892;2023-04-25T20:45:23;6.90;99.90
52669;DHT22;59898;52.786;6.892;2023-04-25T20:48:49;6.90;99.90
52669;DHT22;59898;52.786;6.892;2023-04-25T20:52:11;6.90;99.90
52669;DHT22;59898;52.786;6.892;2023-04-25T20:55:32;6.80;99.90
52669;DHT22;59898;52.786;6.892;2023-04-25T20:58:52;6.80;99.90
52669;DHT22;59898;52.786;6.892;2023-04-25T21:02:14;6.70;99.90
52669;DHT22;59898;52.786;6.892;2023-04-25T21:05:35;6.60;99.90
52669;DHT22;59898;52.786;6.892;2023-04-25T21:08:56;6.60;99.90
52669;DHT22;59898;52.786;6.892;2023-04-25T21:12:16;6.50;99.90
52669;DHT22;59898;52.786;6.892;2023-04-25T21:15:37;6.50;99.90
52669;DHT22;59898;52.786;6.892;2023-04-25T21:18:58;6.50;99.90
52669;DHT22;59898;52.786;6.892;2023-04-25T21:22:19;6.50;99.90
52669;DHT22;59898;52.786;6.892;2023-04-25T21:25:40;6.40;99.90
52669;DHT22;59898;52.786;6.892;2023-04-25T21:29:02;6.40;99.90
52669;DHT22;59898;52.786;6.892;2023-04-25T21:32:23;6.30;99.90
52669;DHT22;59898;52.786;6.892;2023-04-25T21:35:44;6.40;99.90